Data for 08/17/2006

Time Sea-Level Adjusted Pressure Absolute Pressure Temperature Relative Humidity Dew Point   
(mb) (inHg) (mb) (inHg) (C) (F) (%) (C) (F)
00:05 1019 30.09 848 25.04 15.9 60.6 63 8.9 47.9
00:10 1019 30.09 848 25.04 15.7 60.3 63 8.8 47.9
00:15 1018 30.06 848 25.04 15.8 60.5 63 8.9 48.1
00:20 1018 30.06 848 25.04 15.7 60.2 64 8.9 48
00:25 1019 30.09 848 25.04 15.6 60.1 64 8.9 48.1
00:30 1018 30.06 848 25.04 15.1 59.1 69 9.4 49
00:35 1018 30.06 848 25.04 14.3 57.7 71 9.2 48.5
00:40 1019 30.09 848 25.04 14 57.2 73 9.2 48.5
00:45 1019 30.09 848 25.04 13.8 56.9 73 9 48.2
00:50 1019 30.09 848 25.04 13.8 56.8 73 9 48.3
00:55 1019 30.09 848 25.04 13.8 56.8 73 9 48.3
01:00 1019 30.09 848 25.04 13.7 56.6 73 9 48.2
01:05 1019 30.09 848 25.04 13.7 56.7 72 8.7 47.6
01:10 1019 30.09 848 25.04 14 57.2 72 9 48.2
01:15 1020 30.12 849 25.07 14 57.2 72 9.1 48.4
01:20 1019 30.09 848 25.04 14.3 57.7 70 8.9 48.1
01:25 1019 30.09 848 25.04 14.4 57.8 70 9 48.1
01:30 1018 30.06 848 25.04 14.6 58.3 69 9.1 48.4
01:35 1018 30.06 847 25.01 14.6 58.4 70 9.4 48.9
01:40 1018 30.06 847 25.01 14.6 58.2 70 9.3 48.7
01:45 1018 30.06 847 25.01 14.5 58.2 70 9.2 48.5
01:50 1018 30.06 847 25.01 14.5 58 70 9.1 48.5
01:55 1018 30.06 847 25.01 14.3 57.8 70 9 48.2
02:00 1018 30.06 847 25.01 14.4 57.9 70 9.1 48.4
02:05 1018 30.06 848 25.04 14.3 57.8 71 9.1 48.4
02:10 1018 30.06 848 25.04 14.3 57.7 72 9.4 48.8
02:15 1018 30.06 848 25.04 14.2 57.5 72 9.2 48.5
02:20 1018 30.06 848 25.04 14.1 57.3 73 9.4 48.9
02:25 1019 30.09 848 25.04 14 57.1 73 9.3 48.7
02:30 1019 30.09 848 25.04 13.9 57 74 9.4 48.9
02:35 1019 30.09 848 25.04 13.8 56.9 76 9.7 49.5
02:40 1019 30.09 848 25.04 13.8 56.8 75 9.5 49.1
02:45 1019 30.09 848 25.04 13.8 56.8 75 9.5 49.1
02:50 1019 30.09 848 25.04 13.7 56.7 75 9.5 49
02:55 1020 30.12 849 25.07 13.8 56.8 75 9.5 49.1
03:00 1019 30.09 849 25.07 13.7 56.7 76 9.5 49.2
03:05 1020 30.12 849 25.07 13.5 56.3 76 9.4 48.9
03:10 1020 30.12 849 25.07 13.3 56 76 9.2 48.5
03:15 1020 30.12 849 25.07 13.2 55.7 76 9.1 48.4
03:20 1019 30.09 849 25.07 13 55.3 76 8.9 48.1
03:25 1019 30.09 849 25.07 12.9 55.2 77 9 48.2
03:30 1020 30.12 849 25.07 12.9 55.2 78 9.1 48.4
03:35 1021 30.15 850 25.1 13.1 55.6 76 8.9 48.1
03:40 1021 30.15 850 25.1 13 55.4 76 8.9 48.1
03:45 1020 30.12 849 25.07 12.9 55.2 77 8.9 48.1
03:50 1019 30.09 849 25.07 12.8 55 77 8.8 47.8
03:55 1019 30.09 849 25.07 12.8 55 77 8.8 47.9
04:00 1019 30.09 848 25.04 12.8 55.1 76 8.8 47.8
04:05 1019 30.09 849 25.07 13.1 55.6 75 8.8 47.9
04:10 1019 30.09 848 25.04 13.4 56 74 8.8 47.8
04:15 1019 30.09 848 25.04 13.5 56.4 72 8.6 47.5
04:20 1020 30.12 849 25.07 13.7 56.6 72 8.7 47.6
04:25 1020 30.12 849 25.07 13.6 56.5 72 8.7 47.6
04:30 1019 30.09 848 25.04 13.5 56.3 72 8.7 47.6
04:35 1019 30.09 848 25.04 13.5 56.3 72 8.6 47.5
04:40 1019 30.09 848 25.04 13.6 56.4 72 8.6 47.5
04:45 1019 30.09 848 25.04 13.5 56.3 72 8.6 47.5
04:50 1018 30.06 848 25.04 13.5 56.3 72 8.6 47.5
04:55 1018 30.06 848 25.04 13.5 56.3 72 8.6 47.4
05:00 1018 30.06 848 25.04 13.4 56.2 73 8.7 47.7
05:05 1018 30.06 847 25.01 13.3 55.9 74 8.7 47.6
05:10 1018 30.06 847 25.01 13.1 55.6 74 8.6 47.6
05:15 1018 30.06 847 25.01 13.1 55.6 74 8.6 47.5
05:20 1018 30.06 847 25.01 13.1 55.6 74 8.7 47.6
05:25 1018 30.06 847 25.01 13.1 55.6 74 8.6 47.4
05:30 1018 30.06 847 25.01 13.1 55.6 73 8.5 47.2
05:35 1017 30.03 847 25.01 13.1 55.6 73 8.5 47.3
05:40 1017 30.03 847 25.01 13.1 55.6 73 8.4 47.1
05:45 1018 30.06 847 25.01 13.1 55.6 73 8.4 47.2
05:50 1018 30.06 847 25.01 13.1 55.6 73 8.4 47.2
05:55 1018 30.06 848 25.04 13.1 55.6 73 8.3 47
06:00 1019 30.09 848 25.04 13.2 55.7 72 8.3 47
06:05 1018 30.06 848 25.04 13.2 55.7 72 8.2 46.8
06:10 1018 30.06 847 25.01 13.3 56 71 8.2 46.8
06:15 1018 30.06 847 25.01 13.3 55.9 72 8.4 47
06:20 1018 30.06 847 25.01 13.2 55.7 73 8.4 47.1
06:25 1018 30.06 847 25.01 13.1 55.6 73 8.3 47
06:30 1019 30.09 848 25.04 13 55.4 73 8.3 47
06:35 1019 30.09 848 25.04 13 55.4 73 8.3 46.9
06:40 1019 30.09 848 25.04 13.1 55.5 73 8.3 46.9
06:45 1019 30.09 848 25.04 13 55.4 72 8.2 46.7
06:50 1019 30.09 848 25.04 13.1 55.5 72 8.2 46.7
06:55 1019 30.09 848 25.04 13.1 55.5 72 8.1 46.6
07:00 1019 30.09 848 25.04 13.2 55.8 71 8.1 46.6
07:05 1019 30.09 849 25.07 13.2 55.7 75 8.9 48.1
07:10 1020 30.12 849 25.07 12.7 54.9 77 8.8 47.9
07:15 1019 30.09 849 25.07 12.6 54.7 78 8.8 47.8
07:20 1019 30.09 849 25.07 12.5 54.5 79 8.9 48
07:25 1020 30.12 849 25.07 12.5 54.5 78 8.9 48
07:30 1020 30.12 849 25.07 12.5 54.4 79 8.9 47.9
07:35 1020 30.12 849 25.07 12.5 54.5 78 8.9 48
07:40 1020 30.12 849 25.07 12.5 54.5 78 8.8 47.9
07:45 1020 30.12 849 25.07 12.5 54.5 78 8.9 48
07:50 1020 30.12 849 25.07 12.5 54.4 79 9 48.2
07:55 1020 30.12 849 25.07 12.5 54.4 79 8.9 48
08:00 1020 30.12 850 25.1 12.5 54.5 78 8.8 47.8
08:05 1020 30.12 850 25.1 12.6 54.6 78 8.9 48.1
08:10 1020 30.12 849 25.07 12.6 54.8 78 8.9 48
08:15 1020 30.12 849 25.07 12.7 54.8 78 8.9 48
08:20 1020 30.12 849 25.07 12.7 54.9 77 8.8 47.9
08:25 1020 30.12 850 25.1 12.9 55.1 77 9 48.3
08:30 1020 30.12 849 25.07 13 55.3 77 9 48.2
08:35 1020 30.12 849 25.07 13 55.4 76 8.9 48
08:40 1020 30.12 850 25.1 13.2 55.8 74 8.7 47.6
08:45 1021 30.15 850 25.1 13.5 56.4 73 8.9 48
08:50 1021 30.15 850 25.1 13.9 57 71 8.7 47.7
08:55 1021 30.15 850 25.1 14 57.2 71 8.8 47.9
09:00 1021 30.15 850 25.1 14.1 57.3 70 8.8 47.8
09:05 1021 30.15 850 25.1 14.5 58 69 8.8 47.8
09:10 1021 30.15 850 25.1 14.9 58.8 67 8.8 47.8
09:15 1021 30.15 850 25.1 15.4 59.7 65 8.9 48.1
09:20 1021 30.15 850 25.1 15.7 60.2 64 9.1 48.3
09:25 1021 30.15 850 25.1 15.8 60.4 64 9 48.3
09:30 1021 30.15 850 25.1 15.6 60.1 64 8.9 48
09:35 1021 30.15 850 25.1 15.4 59.8 64 8.7 47.7
09:40 1021 30.15 850 25.1 15.4 59.7 65 9 48.2
09:45 1021 30.15 850 25.1 15.9 60.7 61 8.6 47.5
09:50 1021 30.15 850 25.1 16.1 60.9 62 8.9 48
09:55 1021 30.15 850 25.1 16.6 61.9 61 9.1 48.4
10:00 1021 30.15 850 25.1 16.9 62.5 58 8.8 47.8
10:05 1021 30.15 850 25.1 16.5 61.8 61 9.1 48.3
10:10 1021 30.15 850 25.1 16.8 62.2 59 8.8 47.8
10:15 1021 30.15 850 25.1 17.2 63 58 9 48.2
10:20 1021 30.15 850 25.1 17.3 63.1 59 9.4 48.9
10:25 1021 30.15 850 25.1 17.7 63.9 56 8.9 48
10:30 1021 30.15 850 25.1 17.8 64.1 57 9.4 48.9
10:35 1021 30.15 850 25.1 18.3 64.9 55 9.1 48.3
10:40 1021 30.15 850 25.1 18.6 65.4 55 9.5 49.1
10:45 1021 30.15 850 25.1 17.6 63.7 58 9.3 48.8
10:50 1021 30.15 850 25.1 17.6 63.7 57 9.1 48.5
10:55 1021 30.15 850 25.1 17.8 64.1 56 9 48.2
11:00 1021 30.15 850 25.1 17.6 63.6 55 8.5 47.4
11:05 1021 30.15 850 25.1 18.4 65.2 52 8.6 47.6
11:10 1021 30.15 850 25.1 19.5 67.1 50 9 48.3
11:15 1021 30.15 850 25.1 19.6 67.3 51 9.3 48.7
11:20 1021 30.15 850 25.1 18.6 65.5 55 9.6 49.3
11:25 1021 30.15 850 25.1 18 64.4 55 9 48.3
11:30 1021 30.15 850 25.1 18.1 64.7 55 9.1 48.4
11:35 1021 30.15 850 25.1 17.5 63.4 58 9.2 48.6
11:40 1021 30.15 850 25.1 17.5 63.4 55 8.5 47.4
11:45 1021 30.15 850 25.1 18.2 64.8 53 8.6 47.5
11:50 1021 30.15 850 25.1 19.3 66.8 48 8.3 46.9
11:55 1021 30.15 850 25.1 18.7 65.7 56 10 50
12:00 1021 30.15 850 25.1 19.9 67.7 48 8.6 47.4
12:05 1021 30.15 850 25.1 20.4 68.7 45 8.1 46.6
12:10 1021 30.15 850 25.1 20.8 69.4 44 8.2 46.7
12:15 1021 30.15 850 25.1 21 69.7 45 8.8 47.8
12:20 1021 30.15 850 25.1 20.3 68.6 46 8.6 47.5
12:25 1021 30.15 850 25.1 20.2 68.4 48 9 48.2
12:30 1021 30.15 850 25.1 20 68 49 9 48.1
12:35 1021 30.15 850 25.1 20.4 68.7 48 9.1 48.3
12:40 1021 30.15 850 25.1 19.3 66.8 51 9.1 48.3
12:45 1021 30.15 850 25.1 19.1 66.4 52 9.3 48.7
12:50 1021 30.15 850 25.1 19.7 67.5 48 8.5 47.3
12:55 1021 30.15 850 25.1 21.2 70.2 44 8.6 47.4
13:00 1021 30.15 850 25.1 21.4 70.5 44 8.9 48
13:05 1021 30.15 850 25.1 21.1 69.9 44 8.4 47.2
13:10 1021 30.15 850 25.1 20.2 68.4 48 8.9 48
13:15 1021 30.15 850 25.1 20.2 68.3 49 9.2 48.6
13:20 1021 30.15 850 25.1 20.4 68.7 47 9 48.2
13:25 1021 30.15 850 25.1 20.5 69 47 8.9 48
13:30 1021 30.15 850 25.1 20.4 68.8 47 9 48.2
13:35 1021 30.15 850 25.1 20.3 68.5 47 8.7 47.6
13:40 1021 30.15 850 25.1 20 67.9 46 8.3 46.9
13:45 1021 30.15 850 25.1 19.8 67.7 49 9 48.1
13:50 1020 30.12 850 25.1 20.5 68.9 46 8.5 47.3
13:55 1020 30.12 850 25.1 21.5 70.7 42 8.1 46.5
14:00 1021 30.15 850 25.1 22.2 71.9 41 8.4 47.2
14:05 1021 30.15 850 25.1 21.9 71.4 41 8.3 46.9
14:10 1021 30.15 850 25.1 21.9 71.5 43 9.1 48.3
14:15 1021 30.15 850 25.1 20.5 69 45 8.2 46.7
14:20 1021 30.15 850 25.1 20.7 69.3 44 8.2 46.8
14:25 1021 30.15 850 25.1 21 69.9 43 8.2 46.8
14:30 1021 30.15 850 25.1 21.1 69.9 44 8.5 47.3
14:35 1021 30.15 850 25.1 20.9 69.6 44 8.3 47
14:40 1020 30.12 850 25.1 20.4 68.6 46 8.4 47.2
14:45 1021 30.15 850 25.1 20.3 68.6 47 8.9 47.9
14:50 1020 30.12 850 25.1 20 68.1 47 8.5 47.3
14:55 1020 30.12 850 25.1 20 68.1 47 8.5 47.4
15:00 1021 30.15 850 25.1 20 68 48 8.7 47.6
15:05 1021 30.15 850 25.1 20 68.1 47 8.5 47.3
15:10 1021 30.15 850 25.1 19.9 67.8 51 9.5 49
15:15 1021 30.15 850 25.1 19.6 67.3 54 10.1 50.2
15:20 1021 30.15 850 25.1 19.2 66.5 62 11.9 53.4
15:25 1021 30.15 850 25.1 18.6 65.6 63 11.6 53
15:30 1021 30.15 850 25.1 18.4 65.1 65 11.8 53.2
15:35 1021 30.15 850 25.1 18.2 64.8 66 11.9 53.5
15:40 1021 30.15 851 25.13 18 64.4 64 11.1 52
15:45 1022 30.18 851 25.13 17.6 63.6 70 12 53.7
15:50 1022 30.18 851 25.13 16.6 61.9 61 9.2 48.6
15:55 1022 30.18 851 25.13 16.8 62.2 53 7.2 44.9
16:00 1022 30.18 851 25.13 16.5 61.8 62 9.3 48.7
16:05 1022 30.18 851 25.13 15.4 59.8 66 9.1 48.3
16:10 1022 30.18 851 25.13 14.9 58.9 76 10.8 51.5
16:15 1022 30.18 851 25.13 15.1 59.2 75 10.7 51.3
16:20 1021 30.15 851 25.13 15.3 59.6 76 11.2 52.2
16:25 1022 30.18 851 25.13 15.5 59.9 65 9.1 48.3
16:30 1022 30.18 851 25.13 16.1 61 73 11.3 52.4
16:35 1022 30.18 851 25.13 16.1 60.9 72 11.1 52
16:40 1022 30.18 851 25.13 16 60.8 68 10.2 50.4
16:45 1022 30.18 851 25.13 16.1 61 66 10 49.9
16:50 1022 30.18 851 25.13 16.3 61.4 64 9.7 49.4
16:55 1022 30.18 851 25.13 16.3 61.4 65 9.8 49.7
17:00 1022 30.18 851 25.13 16.3 61.4 66 10.1 50.2
17:05 1022 30.18 851 25.13 16 60.7 67 10 49.9
17:10 1022 30.18 851 25.13 15.7 60.2 70 10.3 50.5
17:15 1022 30.18 851 25.13 15.7 60.2 68 9.9 49.8
17:20 1022 30.18 851 25.13 15.9 60.5 71 10.6 51.1
17:25 1022 30.18 851 25.13 15.8 60.4 73 10.9 51.7
17:30 1022 30.18 851 25.13 15.5 59.9 74 11 51.8
17:35 1022 30.18 851 25.13 15.6 60.1 75 11.3 52.3
17:40 1022 30.18 851 25.13 15.8 60.5 77 11.8 53.2
17:45 1022 30.18 851 25.13 15.6 60.1 75 11.3 52.4
17:50 1022 30.18 851 25.13 15.6 60.1 73 10.9 51.6
17:55 1022 30.18 851 25.13 16 60.8 71 10.8 51.5
18:00 1022 30.18 851 25.13 16.3 61.3 67 10.2 50.4
18:05 1022 30.18 852 25.16 16.4 61.6 69 10.9 51.6
18:10 1023 30.21 852 25.16 16.2 61.1 69 10.6 51
18:15 1023 30.21 852 25.16 15.6 60.1 69 10.1 50.2
18:20 1023 30.21 852 25.16 14.7 58.5 68 9 48.1
18:25 1023 30.21 852 25.16 14.4 57.8 69 8.8 47.8
18:30 1023 30.21 853 25.19 14.3 57.8 72 9.3 48.8
18:35 1023 30.21 853 25.19 14.1 57.3 77 10.1 50.1
18:40 1024 30.24 853 25.19 13.3 55.9 79 9.7 49.4
18:45 1024 30.24 853 25.19 13.1 55.6 79 9.5 49.1
18:50 1024 30.24 853 25.19 13.3 56 77 9.3 48.8
18:55 1023 30.21 853 25.19 13.6 56.5 78 9.9 49.9
19:00 1024 30.24 853 25.19 13.7 56.7 78 10.1 50.1
19:05 1024 30.24 853 25.19 13.7 56.7 78 10 50
19:10 1024 30.24 853 25.19 13.7 56.6 80 10.3 50.5
19:15 1024 30.24 853 25.19 13.7 56.6 80 10.3 50.6
19:20 1024 30.24 853 25.19 13.7 56.7 80 10.4 50.8
19:25 1024 30.24 853 25.19 13.6 56.5 85 11.2 52.2
19:30 1024 30.24 854 25.22 12.9 55.3 83 10.2 50.3
19:35 1025 30.27 854 25.22 12.2 53.9 86 10 49.9
19:40 1025 30.27 854 25.22 12.5 54.5 83 9.6 49.4
19:45 1025 30.27 854 25.22 12.8 55 79 9.2 48.5
19:50 1025 30.27 854 25.22 13 55.4 78 9.3 48.7
19:55 1025 30.27 854 25.22 13 55.4 79 9.5 49.2
20:00 1025 30.27 854 25.22 13 55.3 84 10.3 50.6
20:05 1025 30.27 854 25.22 12.6 54.7 85 10.2 50.4
20:10 1025 30.27 854 25.22 12.1 53.8 86 9.9 49.9
20:15 1025 30.27 854 25.22 11.9 53.4 86 9.6 49.3
20:20 1025 30.27 854 25.22 11.7 53.1 88 9.8 49.6
20:25 1025 30.27 854 25.22 11.6 52.8 89 9.8 49.6
20:30 1025 30.27 854 25.22 11.3 52.4 90 9.7 49.5
20:35 1025 30.27 854 25.22 11.2 52.1 90 9.6 49.3
20:40 1025 30.27 854 25.22 11.3 52.3 90 9.7 49.4
20:45 1025 30.27 854 25.22 11.4 52.6 87 9.4 48.9
20:50 1025 30.27 854 25.22 11.5 52.7 86 9.3 48.8
20:55 1025 30.27 854 25.22 11.6 52.9 86 9.5 49
21:00 1025 30.27 855 25.25 11.6 52.9 86 9.3 48.8
21:05 1025 30.27 855 25.25 11.5 52.8 87 9.4 48.9
21:10 1025 30.27 855 25.25 11.5 52.7 88 9.6 49.2
21:15 1026 30.3 855 25.25 11.6 52.9 87 9.6 49.3
21:20 1026 30.3 855 25.25 11.4 52.6 90 9.9 49.7
21:25 1026 30.3 855 25.25 11.1 51.9 91 9.6 49.3
21:30 1026 30.3 855 25.25 10.9 51.6 88 8.9 48.1
21:35 1026 30.3 855 25.25 10.9 51.7 88 9 48.1
21:40 1026 30.3 855 25.25 10.8 51.4 90 9.2 48.5
21:45 1026 30.3 855 25.25 10.7 51.2 91 9.2 48.5
21:50 1026 30.3 855 25.25 10.7 51.2 91 9.3 48.7
21:55 1026 30.3 855 25.25 10.7 51.3 91 9.2 48.6
22:00 1026 30.3 855 25.25 10.8 51.4 89 9 48.2
22:05 1026 30.3 855 25.25 10.9 51.5 88 9 48.2
22:10 1026 30.3 855 25.25 10.9 51.6 88 9 48.3
22:15 1026 30.3 855 25.25 10.9 51.6 89 9.2 48.6
22:20 1026 30.3 855 25.25 11 51.8 88 9.2 48.5
22:25 1026 30.3 855 25.25 11.1 52 89 9.3 48.8
22:30 1026 30.3 855 25.25 11.1 52 90 9.5 49.1
22:35 1026 30.3 855 25.25 10.7 51.2 91 9.3 48.8
22:40 1026 30.3 855 25.25 10.5 50.8 91 9 48.3
22:45 1026 30.3 855 25.25 10.4 50.7 90 8.9 48
22:50 1026 30.3 855 25.25 10.2 50.3 90 8.6 47.5
22:55 1026 30.3 855 25.25 10.1 50.2 89 8.5 47.2
23:00 1026 30.3 855 25.25 10.1 50.3 89 8.4 47
23:05 1026 30.3 855 25.25 10.2 50.4 87 8.2 46.8
23:10 1026 30.3 855 25.25 10.2 50.4 89 8.6 47.4
23:15 1026 30.3 855 25.25 9.9 49.7 91 8.5 47.2
23:20 1026 30.3 855 25.25 9.9 49.7 90 8.3 46.9
23:25 1026 30.3 855 25.25 9.7 49.5 90 8.2 46.8
23:30 1026 30.3 855 25.25 9.7 49.5 90 8.2 46.8
23:35 1026 30.3 855 25.25 9.6 49.4 91 8.3 46.9
23:40 1026 30.3 855 25.25 9.6 49.3 90 8.1 46.6
23:45 1026 30.3 855 25.25 9.7 49.4 90 8.1 46.6
23:50 1026 30.3 855 25.25 9.8 49.6 89 8.1 46.5
23:55 1026 30.3 855 25.25 9.6 49.3 90 8 46.4
24:00 1026 30.3 855 25.25 9.4 49 89 7.8 46